sensor_id;sensor_type;location;lat;lon;timestamp;temperature;humidity
52669;DHT22;59898;52.786;6.892;2022-12-20T00:01:28;9.40;99.90
52669;DHT22;59898;52.786;6.892;2022-12-20T00:04:49;9.40;99.90
52669;DHT22;59898;52.786;6.892;2022-12-20T00:08:10;9.40;99.90
52669;DHT22;59898;52.786;6.892;2022-12-20T00:11:31;9.40;99.90
52669;DHT22;59898;52.786;6.892;2022-12-20T00:14:52;9.40;99.90
52669;DHT22;59898;52.786;6.892;2022-12-20T00:18:13;9.40;99.90
52669;DHT22;59898;52.786;6.892;2022-12-20T00:21:34;9.40;99.90
52669;DHT22;59898;52.786;6.892;2022-12-20T00:24:55;9.40;99.90
52669;DHT22;59898;52.786;6.892;2022-12-20T00:28:15;9.40;99.90
52669;DHT22;59898;52.786;6.892;2022-12-20T00:31:36;9.40;99.90
52669;DHT22;59898;52.786;6.892;2022-12-20T00:34:57;9.40;99.90
52669;DHT22;59898;52.786;6.892;2022-12-20T00:38:18;9.40;99.90
52669;DHT22;59898;52.786;6.892;2022-12-20T00:41:39;9.40;99.90
52669;DHT22;59898;52.786;6.892;2022-12-20T00:44:59;9.40;99.90
52669;DHT22;59898;52.786;6.892;2022-12-20T00:48:20;9.50;99.90
52669;DHT22;59898;52.786;6.892;2022-12-20T00:51:41;9.50;99.90
52669;DHT22;59898;52.786;6.892;2022-12-20T00:55:02;9.50;99.90
52669;DHT22;59898;52.786;6.892;2022-12-20T00:58:23;9.60;99.90
52669;DHT22;59898;52.786;6.892;2022-12-20T01:01:45;9.60;99.90
52669;DHT22;59898;52.786;6.892;2022-12-20T01:05:06;9.60;99.90
52669;DHT22;59898;52.786;6.892;2022-12-20T01:08:29;9.60;99.90
52669;DHT22;59898;52.786;6.892;2022-12-20T01:11:50;9.70;99.90
52669;DHT22;59898;52.786;6.892;2022-12-20T01:15:11;9.70;99.90
52669;DHT22;59898;52.786;6.892;2022-12-20T01:18:32;9.70;99.90
52669;DHT22;59898;52.786;6.892;2022-12-20T01:21:53;9.70;99.90
52669;DHT22;59898;52.786;6.892;2022-12-20T01:25:13;9.70;99.90
52669;DHT22;59898;52.786;6.892;2022-12-20T01:28:35;9.70;99.90
52669;DHT22;59898;52.786;6.892;2022-12-20T01:31:56;9.70;99.90
52669;DHT22;59898;52.786;6.892;2022-12-20T01:35:17;9.70;99.90
52669;DHT22;59898;52.786;6.892;2022-12-20T01:38:37;9.70;99.90
52669;DHT22;59898;52.786;6.892;2022-12-20T01:41:58;9.70;99.90
52669;DHT22;59898;52.786;6.892;2022-12-20T01:45:27;9.70;99.90
52669;DHT22;59898;52.786;6.892;2022-12-20T01:49:09;9.70;99.90
52669;DHT22;59898;52.786;6.892;2022-12-20T01:52:35;9.80;99.90
52669;DHT22;59898;52.786;6.892;2022-12-20T01:56:00;9.80;99.90
52669;DHT22;59898;52.786;6.892;2022-12-20T01:59:24;9.80;99.90
52669;DHT22;59898;52.786;6.892;2022-12-20T02:02:46;9.80;99.90
52669;DHT22;59898;52.786;6.892;2022-12-20T02:06:17;9.80;99.90
52669;DHT22;59898;52.786;6.892;2022-12-20T02:09:38;9.80;99.90
52669;DHT22;59898;52.786;6.892;2022-12-20T02:13:08;9.90;99.90
52669;DHT22;59898;52.786;6.892;2022-12-20T02:16:39;9.80;99.90
52669;DHT22;59898;52.786;6.892;2022-12-20T02:27:33;9.90;99.90
52669;DHT22;59898;52.786;6.892;2022-12-20T02:31:03;10.00;99.90
52669;DHT22;59898;52.786;6.892;2022-12-20T02:34:25;10.00;99.90
52669;DHT22;59898;52.786;6.892;2022-12-20T02:37:58;9.90;99.90
52669;DHT22;59898;52.786;6.892;2022-12-20T02:41:37;10.00;99.90
52669;DHT22;59898;52.786;6.892;2022-12-20T02:45:04;10.00;99.90
52669;DHT22;59898;52.786;6.892;2022-12-20T02:48:37;10.00;99.90
52669;DHT22;59898;52.786;6.892;2022-12-20T02:52:00;10.00;99.90
52669;DHT22;59898;52.786;6.892;2022-12-20T03:02:28;10.00;99.90
52669;DHT22;59898;52.786;6.892;2022-12-20T03:06:09;10.00;99.90
52669;DHT22;59898;52.786;6.892;2022-12-20T03:09:31;10.00;99.90
52669;DHT22;59898;52.786;6.892;2022-12-20T03:12:52;10.00;99.90
52669;DHT22;59898;52.786;6.892;2022-12-20T03:16:13;10.00;99.90
52669;DHT22;59898;52.786;6.892;2022-12-20T03:19:33;10.00;99.90
52669;DHT22;59898;52.786;6.892;2022-12-20T03:22:54;10.00;99.90
52669;DHT22;59898;52.786;6.892;2022-12-20T03:26:15;9.90;99.90
52669;DHT22;59898;52.786;6.892;2022-12-20T03:29:36;9.90;99.90
52669;DHT22;59898;52.786;6.892;2022-12-20T03:32:56;9.90;99.90
52669;DHT22;59898;52.786;6.892;2022-12-20T03:36:17;9.80;99.90
52669;DHT22;59898;52.786;6.892;2022-12-20T03:39:42;9.80;99.90
52669;DHT22;59898;52.786;6.892;2022-12-20T03:43:03;9.80;99.90
52669;DHT22;59898;52.786;6.892;2022-12-20T03:46:24;9.90;99.90
52669;DHT22;59898;52.786;6.892;2022-12-20T03:49:45;9.80;99.90
52669;DHT22;59898;52.786;6.892;2022-12-20T03:53:06;9.80;99.90
52669;DHT22;59898;52.786;6.892;2022-12-20T03:56:26;9.80;99.90
52669;DHT22;59898;52.786;6.892;2022-12-20T03:59:47;9.70;99.90
52669;DHT22;59898;52.786;6.892;2022-12-20T04:03:08;9.70;99.90
52669;DHT22;59898;52.786;6.892;2022-12-20T04:06:29;9.70;99.90
52669;DHT22;59898;52.786;6.892;2022-12-20T04:09:50;9.60;99.90
52669;DHT22;59898;52.786;6.892;2022-12-20T04:13:10;9.60;99.90
52669;DHT22;59898;52.786;6.892;2022-12-20T04:16:31;9.70;99.90
52669;DHT22;59898;52.786;6.892;2022-12-20T04:19:52;9.60;99.90
52669;DHT22;59898;52.786;6.892;2022-12-20T04:23:13;9.70;99.90
52669;DHT22;59898;52.786;6.892;2022-12-20T04:26:33;9.70;99.90
52669;DHT22;59898;52.786;6.892;2022-12-20T04:29:54;9.70;99.90
52669;DHT22;59898;52.786;6.892;2022-12-20T04:33:15;9.70;99.90
52669;DHT22;59898;52.786;6.892;2022-12-20T04:36:35;9.70;99.90
52669;DHT22;59898;52.786;6.892;2022-12-20T04:39:56;9.70;99.90
52669;DHT22;59898;52.786;6.892;2022-12-20T04:43:18;9.70;99.90
52669;DHT22;59898;52.786;6.892;2022-12-20T04:46:39;9.70;99.90
52669;DHT22;59898;52.786;6.892;2022-12-20T04:49:59;9.70;99.90
52669;DHT22;59898;52.786;6.892;2022-12-20T04:53:21;9.70;99.90
52669;DHT22;59898;52.786;6.892;2022-12-20T04:57:00;9.70;99.90
52669;DHT22;59898;52.786;6.892;2022-12-20T05:00:21;9.70;99.90
52669;DHT22;59898;52.786;6.892;2022-12-20T05:03:42;9.80;99.90
52669;DHT22;59898;52.786;6.892;2022-12-20T05:07:03;9.90;99.90
52669;DHT22;59898;52.786;6.892;2022-12-20T05:10:23;9.90;99.90
52669;DHT22;59898;52.786;6.892;2022-12-20T05:13:44;9.90;99.90
52669;DHT22;59898;52.786;6.892;2022-12-20T05:17:05;10.00;99.90
52669;DHT22;59898;52.786;6.892;2022-12-20T05:20:26;10.00;99.90
52669;DHT22;59898;52.786;6.892;2022-12-20T05:23:47;10.00;99.90
52669;DHT22;59898;52.786;6.892;2022-12-20T05:27:27;10.10;99.90
52669;DHT22;59898;52.786;6.892;2022-12-20T05:30:47;10.20;99.90
52669;DHT22;59898;52.786;6.892;2022-12-20T05:34:08;10.20;99.90
52669;DHT22;59898;52.786;6.892;2022-12-20T05:37:29;10.30;99.90
52669;DHT22;59898;52.786;6.892;2022-12-20T05:40:50;10.30;99.90
52669;DHT22;59898;52.786;6.892;2022-12-20T05:44:11;10.40;99.90
52669;DHT22;59898;52.786;6.892;2022-12-20T05:47:31;10.50;99.90
52669;DHT22;59898;52.786;6.892;2022-12-20T05:50:53;10.50;99.90
52669;DHT22;59898;52.786;6.892;2022-12-20T05:54:13;10.50;99.90
52669;DHT22;59898;52.786;6.892;2022-12-20T05:57:34;10.60;99.90
52669;DHT22;59898;52.786;6.892;2022-12-20T06:00:55;10.60;99.90
52669;DHT22;59898;52.786;6.892;2022-12-20T06:04:16;10.60;99.90
52669;DHT22;59898;52.786;6.892;2022-12-20T06:07:36;10.60;99.90
52669;DHT22;59898;52.786;6.892;2022-12-20T06:10:57;10.70;99.90
52669;DHT22;59898;52.786;6.892;2022-12-20T06:14:18;10.60;99.90
52669;DHT22;59898;52.786;6.892;2022-12-20T06:17:39;10.60;99.90
52669;DHT22;59898;52.786;6.892;2022-12-20T06:20:59;10.50;99.90
52669;DHT22;59898;52.786;6.892;2022-12-20T06:24:21;10.60;99.90
52669;DHT22;59898;52.786;6.892;2022-12-20T06:27:44;10.60;99.90
52669;DHT22;59898;52.786;6.892;2022-12-20T06:31:05;9.90;99.90
52669;DHT22;59898;52.786;6.892;2022-12-20T06:34:26;10.60;99.90
52669;DHT22;59898;52.786;6.892;2022-12-20T06:37:47;10.50;99.90
52669;DHT22;59898;52.786;6.892;2022-12-20T06:41:07;10.60;99.90
52669;DHT22;59898;52.786;6.892;2022-12-20T06:44:28;10.60;99.90
52669;DHT22;59898;52.786;6.892;2022-12-20T06:47:49;10.50;99.90
52669;DHT22;59898;52.786;6.892;2022-12-20T06:51:09;10.50;99.90
52669;DHT22;59898;52.786;6.892;2022-12-20T06:54:30;10.40;99.90
52669;DHT22;59898;52.786;6.892;2022-12-20T06:57:51;10.40;99.90
52669;DHT22;59898;52.786;6.892;2022-12-20T07:01:12;10.40;99.90
52669;DHT22;59898;52.786;6.892;2022-12-20T07:04:32;10.30;99.90
52669;DHT22;59898;52.786;6.892;2022-12-20T07:07:53;10.30;99.90
52669;DHT22;59898;52.786;6.892;2022-12-20T07:11:14;10.30;99.90
52669;DHT22;59898;52.786;6.892;2022-12-20T07:14:34;10.20;99.90
52669;DHT22;59898;52.786;6.892;2022-12-20T07:17:55;10.20;99.90
52669;DHT22;59898;52.786;6.892;2022-12-20T07:21:16;10.20;99.90
52669;DHT22;59898;52.786;6.892;2022-12-20T07:24:38;10.20;99.90
52669;DHT22;59898;52.786;6.892;2022-12-20T07:27:59;10.20;99.90
52669;DHT22;59898;52.786;6.892;2022-12-20T07:31:20;10.20;99.90
52669;DHT22;59898;52.786;6.892;2022-12-20T07:34:40;10.20;99.90
52669;DHT22;59898;52.786;6.892;2022-12-20T07:38:01;10.10;99.90
52669;DHT22;59898;52.786;6.892;2022-12-20T07:41:22;10.20;99.90
52669;DHT22;59898;52.786;6.892;2022-12-20T07:44:43;10.20;99.90
52669;DHT22;59898;52.786;6.892;2022-12-20T07:48:04;10.20;99.90
52669;DHT22;59898;52.786;6.892;2022-12-20T07:51:28;10.20;99.90
52669;DHT22;59898;52.786;6.892;2022-12-20T07:54:53;10.20;99.90
52669;DHT22;59898;52.786;6.892;2022-12-20T07:58:17;10.20;99.90
52669;DHT22;59898;52.786;6.892;2022-12-20T08:01:39;10.20;99.90
52669;DHT22;59898;52.786;6.892;2022-12-20T08:05:03;10.20;99.90
52669;DHT22;59898;52.786;6.892;2022-12-20T08:08:25;10.30;99.90
52669;DHT22;59898;52.786;6.892;2022-12-20T08:11:47;10.30;99.90
52669;DHT22;59898;52.786;6.892;2022-12-20T08:15:08;10.40;99.90
52669;DHT22;59898;52.786;6.892;2022-12-20T08:18:29;10.40;99.90
52669;DHT22;59898;52.786;6.892;2022-12-20T08:21:50;10.40;99.90
52669;DHT22;59898;52.786;6.892;2022-12-20T08:25:10;10.50;99.90
52669;DHT22;59898;52.786;6.892;2022-12-20T08:28:31;10.50;99.90
52669;DHT22;59898;52.786;6.892;2022-12-20T08:31:52;10.50;99.90
52669;DHT22;59898;52.786;6.892;2022-12-20T08:35:13;10.60;99.90
52669;DHT22;59898;52.786;6.892;2022-12-20T08:38:34;10.70;99.90
52669;DHT22;59898;52.786;6.892;2022-12-20T08:41:55;10.70;99.90
52669;DHT22;59898;52.786;6.892;2022-12-20T08:45:15;10.70;99.90
52669;DHT22;59898;52.786;6.892;2022-12-20T08:48:38;10.70;99.90
52669;DHT22;59898;52.786;6.892;2022-12-20T08:51:59;10.80;99.90
52669;DHT22;59898;52.786;6.892;2022-12-20T08:55:20;10.80;99.90
52669;DHT22;59898;52.786;6.892;2022-12-20T08:58:41;10.80;99.90
52669;DHT22;59898;52.786;6.892;2022-12-20T09:02:02;10.90;99.90
52669;DHT22;59898;52.786;6.892;2022-12-20T09:05:23;10.90;99.90
52669;DHT22;59898;52.786;6.892;2022-12-20T09:08:44;10.90;99.90
52669;DHT22;59898;52.786;6.892;2022-12-20T09:23:14;10.90;99.90
52669;DHT22;59898;52.786;6.892;2022-12-20T09:26:35;10.90;99.90
52669;DHT22;59898;52.786;6.892;2022-12-20T09:29:56;10.90;99.90
52669;DHT22;59898;52.786;6.892;2022-12-20T09:33:17;10.90;99.90
52669;DHT22;59898;52.786;6.892;2022-12-20T09:36:55;10.90;99.90
52669;DHT22;59898;52.786;6.892;2022-12-20T09:40:18;10.90;99.90
52669;DHT22;59898;52.786;6.892;2022-12-20T09:43:40;10.90;99.90
52669;DHT22;59898;52.786;6.892;2022-12-20T09:47:08;11.60;99.90
52669;DHT22;59898;52.786;6.892;2022-12-20T10:01:48;10.90;99.90
52669;DHT22;59898;52.786;6.892;2022-12-20T10:05:15;10.80;99.90
52669;DHT22;59898;52.786;6.892;2022-12-20T10:16:35;10.70;99.90
52669;DHT22;59898;52.786;6.892;2022-12-20T10:23:36;10.50;99.90
52669;DHT22;59898;52.786;6.892;2022-12-20T10:27:19;10.50;99.90
52669;DHT22;59898;52.786;6.892;2022-12-20T10:30:40;10.40;99.90
52669;DHT22;59898;52.786;6.892;2022-12-20T10:34:01;10.30;99.90
52669;DHT22;59898;52.786;6.892;2022-12-20T10:37:22;10.20;99.90
52669;DHT22;59898;52.786;6.892;2022-12-20T10:41:02;10.10;99.90
52669;DHT22;59898;52.786;6.892;2022-12-20T10:44:27;10.10;99.90
52669;DHT22;59898;52.786;6.892;2022-12-20T10:47:50;10.10;99.90
52669;DHT22;59898;52.786;6.892;2022-12-20T10:54:42;10.10;99.90
52669;DHT22;59898;52.786;6.892;2022-12-20T11:01:49;10.10;99.90
52669;DHT22;59898;52.786;6.892;2022-12-20T11:08:31;10.10;99.90
52669;DHT22;59898;52.786;6.892;2022-12-20T11:15:23;10.10;99.90
52669;DHT22;59898;52.786;6.892;2022-12-20T11:22:50;10.10;99.90
52669;DHT22;59898;52.786;6.892;2022-12-20T11:26:29;10.10;99.90
52669;DHT22;59898;52.786;6.892;2022-12-20T11:30:12;10.20;99.90
52669;DHT22;59898;52.786;6.892;2022-12-20T11:37:16;10.10;99.90
52669;DHT22;59898;52.786;6.892;2022-12-20T11:40:50;10.10;99.90
52669;DHT22;59898;52.786;6.892;2022-12-20T11:51:27;10.10;99.90
52669;DHT22;59898;52.786;6.892;2022-12-20T11:55:12;10.10;99.90
52669;DHT22;59898;52.786;6.892;2022-12-20T12:02:03;10.10;99.90
52669;DHT22;59898;52.786;6.892;2022-12-20T12:05:30;10.10;99.90
52669;DHT22;59898;52.786;6.892;2022-12-20T12:09:13;10.10;99.90
52669;DHT22;59898;52.786;6.892;2022-12-20T12:13:01;10.00;99.90
52669;DHT22;59898;52.786;6.892;2022-12-20T12:16:27;10.00;99.90
52669;DHT22;59898;52.786;6.892;2022-12-20T12:19:50;10.00;99.90
52669;DHT22;59898;52.786;6.892;2022-12-20T12:23:59;10.00;99.90
52669;DHT22;59898;52.786;6.892;2022-12-20T12:27:27;10.00;99.90
52669;DHT22;59898;52.786;6.892;2022-12-20T12:30:59;10.00;99.90
52669;DHT22;59898;52.786;6.892;2022-12-20T12:45:05;10.00;99.90
52669;DHT22;59898;52.786;6.892;2022-12-20T12:48:36;10.00;99.90
52669;DHT22;59898;52.786;6.892;2022-12-20T12:52:00;10.00;99.90
52669;DHT22;59898;52.786;6.892;2022-12-20T12:55:43;10.00;99.90
52669;DHT22;59898;52.786;6.892;2022-12-20T13:02:31;10.00;99.90
52669;DHT22;59898;52.786;6.892;2022-12-20T13:05:53;10.00;99.90
52669;DHT22;59898;52.786;6.892;2022-12-20T13:16:12;10.00;99.90
52669;DHT22;59898;52.786;6.892;2022-12-20T13:19:37;10.00;99.90
52669;DHT22;59898;52.786;6.892;2022-12-20T13:26:50;10.00;99.90
52669;DHT22;59898;52.786;6.892;2022-12-20T13:33:44;10.00;99.90
52669;DHT22;59898;52.786;6.892;2022-12-20T13:41:20;10.00;99.90
52669;DHT22;59898;52.786;6.892;2022-12-20T13:44:46;10.00;99.90
52669;DHT22;59898;52.786;6.892;2022-12-20T13:48:14;10.00;99.90
52669;DHT22;59898;52.786;6.892;2022-12-20T13:51:35;10.00;99.90
52669;DHT22;59898;52.786;6.892;2022-12-20T13:55:04;10.00;99.90
52669;DHT22;59898;52.786;6.892;2022-12-20T13:58:30;10.00;99.90
52669;DHT22;59898;52.786;6.892;2022-12-20T14:01:56;10.00;99.90
52669;DHT22;59898;52.786;6.892;2022-12-20T14:05:24;10.00;99.90
52669;DHT22;59898;52.786;6.892;2022-12-20T14:08:49;10.00;99.90
52669;DHT22;59898;52.786;6.892;2022-12-20T14:12:16;10.00;99.90
52669;DHT22;59898;52.786;6.892;2022-12-20T14:15:37;10.00;99.90
52669;DHT22;59898;52.786;6.892;2022-12-20T14:19:02;10.00;99.90
52669;DHT22;59898;52.786;6.892;2022-12-20T14:22:23;10.00;99.90
52669;DHT22;59898;52.786;6.892;2022-12-20T14:25:58;10.00;99.90
52669;DHT22;59898;52.786;6.892;2022-12-20T14:29:27;10.00;99.90
52669;DHT22;59898;52.786;6.892;2022-12-20T14:32:49;10.00;99.90
52669;DHT22;59898;52.786;6.892;2022-12-20T14:36:18;10.00;99.90
52669;DHT22;59898;52.786;6.892;2022-12-20T14:40:13;10.00;99.90
52669;DHT22;59898;52.786;6.892;2022-12-20T14:43:35;10.10;99.90
52669;DHT22;59898;52.786;6.892;2022-12-20T14:46:59;10.10;99.90
52669;DHT22;59898;52.786;6.892;2022-12-20T14:50:32;10.10;99.90
52669;DHT22;59898;52.786;6.892;2022-12-20T14:53:54;10.10;99.90
52669;DHT22;59898;52.786;6.892;2022-12-20T14:57:42;10.10;99.90
52669;DHT22;59898;52.786;6.892;2022-12-20T15:01:23;10.10;99.90
52669;DHT22;59898;52.786;6.892;2022-12-20T15:04:46;10.10;99.90
52669;DHT22;59898;52.786;6.892;2022-12-20T15:08:30;10.10;99.90
52669;DHT22;59898;52.786;6.892;2022-12-20T15:11:55;10.10;99.90
52669;DHT22;59898;52.786;6.892;2022-12-20T15:15:16;10.10;99.90
52669;DHT22;59898;52.786;6.892;2022-12-20T15:18:37;10.10;99.90
52669;DHT22;59898;52.786;6.892;2022-12-20T15:21:59;10.10;99.90
52669;DHT22;59898;52.786;6.892;2022-12-20T15:25:19;10.10;99.90
52669;DHT22;59898;52.786;6.892;2022-12-20T15:28:40;10.10;99.90
52669;DHT22;59898;52.786;6.892;2022-12-20T15:32:13;10.20;99.90
52669;DHT22;59898;52.786;6.892;2022-12-20T15:35:35;10.20;99.90
52669;DHT22;59898;52.786;6.892;2022-12-20T15:38:57;10.20;99.90
52669;DHT22;59898;52.786;6.892;2022-12-20T15:42:19;10.60;99.90
52669;DHT22;59898;52.786;6.892;2022-12-20T15:45:42;10.10;99.90
52669;DHT22;59898;52.786;6.892;2022-12-20T15:49:03;10.20;99.90
52669;DHT22;59898;52.786;6.892;2022-12-20T15:52:24;10.20;99.90
52669;DHT22;59898;52.786;6.892;2022-12-20T15:55:44;10.10;99.90
52669;DHT22;59898;52.786;6.892;2022-12-20T15:59:05;10.20;99.90
52669;DHT22;59898;52.786;6.892;2022-12-20T16:02:27;10.20;99.90
52669;DHT22;59898;52.786;6.892;2022-12-20T16:05:49;10.20;99.90
52669;DHT22;59898;52.786;6.892;2022-12-20T16:09:13;10.20;99.90
52669;DHT22;59898;52.786;6.892;2022-12-20T16:12:34;10.20;99.90
52669;DHT22;59898;52.786;6.892;2022-12-20T16:15:55;10.20;99.90
52669;DHT22;59898;52.786;6.892;2022-12-20T16:19:16;10.20;99.90
52669;DHT22;59898;52.786;6.892;2022-12-20T16:22:38;10.20;99.90
52669;DHT22;59898;52.786;6.892;2022-12-20T16:25:59;10.20;99.90
52669;DHT22;59898;52.786;6.892;2022-12-20T16:29:20;10.20;99.90
52669;DHT22;59898;52.786;6.892;2022-12-20T16:32:40;10.20;99.90
52669;DHT22;59898;52.786;6.892;2022-12-20T16:36:01;10.20;99.90
52669;DHT22;59898;52.786;6.892;2022-12-20T16:39:22;10.20;99.90
52669;DHT22;59898;52.786;6.892;2022-12-20T16:42:42;10.20;99.90
52669;DHT22;59898;52.786;6.892;2022-12-20T16:46:03;10.20;99.90
52669;DHT22;59898;52.786;6.892;2022-12-20T16:49:24;10.20;99.90
52669;DHT22;59898;52.786;6.892;2022-12-20T16:52:46;10.20;99.90
52669;DHT22;59898;52.786;6.892;2022-12-20T16:56:13;10.20;99.90
52669;DHT22;59898;52.786;6.892;2022-12-20T16:59:34;10.20;99.90
52669;DHT22;59898;52.786;6.892;2022-12-20T17:02:55;10.20;99.90
52669;DHT22;59898;52.786;6.892;2022-12-20T17:06:17;10.20;99.90
52669;DHT22;59898;52.786;6.892;2022-12-20T17:09:39;10.20;99.90
52669;DHT22;59898;52.786;6.892;2022-12-20T17:12:59;9.50;99.90
52669;DHT22;59898;52.786;6.892;2022-12-20T17:16:22;10.20;99.90
52669;DHT22;59898;52.786;6.892;2022-12-20T17:19:43;10.20;99.90
52669;DHT22;59898;52.786;6.892;2022-12-20T17:23:04;10.20;99.90
52669;DHT22;59898;52.786;6.892;2022-12-20T17:26:27;10.20;99.90
52669;DHT22;59898;52.786;6.892;2022-12-20T17:29:48;10.20;99.90
52669;DHT22;59898;52.786;6.892;2022-12-20T17:33:13;10.20;99.90
52669;DHT22;59898;52.786;6.892;2022-12-20T17:36:34;10.20;99.90
52669;DHT22;59898;52.786;6.892;2022-12-20T17:39:55;10.20;99.90
52669;DHT22;59898;52.786;6.892;2022-12-20T17:43:15;10.20;99.90
52669;DHT22;59898;52.786;6.892;2022-12-20T17:46:36;10.20;99.90
52669;DHT22;59898;52.786;6.892;2022-12-20T17:49:57;10.20;99.90
52669;DHT22;59898;52.786;6.892;2022-12-20T17:53:17;10.20;99.90
52669;DHT22;59898;52.786;6.892;2022-12-20T17:56:38;10.20;99.90
52669;DHT22;59898;52.786;6.892;2022-12-20T17:59:59;10.20;99.90
52669;DHT22;59898;52.786;6.892;2022-12-20T18:03:19;10.10;99.90
52669;DHT22;59898;52.786;6.892;2022-12-20T18:06:42;10.20;99.90
52669;DHT22;59898;52.786;6.892;2022-12-20T18:10:03;10.20;99.90
52669;DHT22;59898;52.786;6.892;2022-12-20T18:13:24;10.20;99.90
52669;DHT22;59898;52.786;6.892;2022-12-20T18:16:44;10.10;99.90
52669;DHT22;59898;52.786;6.892;2022-12-20T18:20:06;10.10;99.90
52669;DHT22;59898;52.786;6.892;2022-12-20T18:23:27;10.10;99.90
52669;DHT22;59898;52.786;6.892;2022-12-20T18:26:48;10.10;99.90
52669;DHT22;59898;52.786;6.892;2022-12-20T18:30:10;10.10;99.90
52669;DHT22;59898;52.786;6.892;2022-12-20T18:33:32;10.10;99.90
52669;DHT22;59898;52.786;6.892;2022-12-20T18:36:52;10.10;99.90
52669;DHT22;59898;52.786;6.892;2022-12-20T18:40:13;10.10;99.90
52669;DHT22;59898;52.786;6.892;2022-12-20T18:43:34;10.10;99.90
52669;DHT22;59898;52.786;6.892;2022-12-20T18:46:55;10.10;99.90
52669;DHT22;59898;52.786;6.892;2022-12-20T18:50:16;10.10;99.90
52669;DHT22;59898;52.786;6.892;2022-12-20T18:53:38;10.10;99.90
52669;DHT22;59898;52.786;6.892;2022-12-20T18:56:59;10.10;99.90
52669;DHT22;59898;52.786;6.892;2022-12-20T19:00:20;10.10;99.90
52669;DHT22;59898;52.786;6.892;2022-12-20T19:03:41;10.10;99.90
52669;DHT22;59898;52.786;6.892;2022-12-20T19:07:02;10.10;99.90
52669;DHT22;59898;52.786;6.892;2022-12-20T19:10:23;10.10;99.90
52669;DHT22;59898;52.786;6.892;2022-12-20T19:13:43;10.10;99.90
52669;DHT22;59898;52.786;6.892;2022-12-20T19:17:04;10.10;99.90
52669;DHT22;59898;52.786;6.892;2022-12-20T19:20:25;10.10;99.90
52669;DHT22;59898;52.786;6.892;2022-12-20T19:23:48;10.10;99.90
52669;DHT22;59898;52.786;6.892;2022-12-20T19:27:09;10.10;99.90
52669;DHT22;59898;52.786;6.892;2022-12-20T19:30:29;10.10;99.90
52669;DHT22;59898;52.786;6.892;2022-12-20T19:33:52;10.10;99.90
52669;DHT22;59898;52.786;6.892;2022-12-20T19:37:13;10.10;99.90
52669;DHT22;59898;52.786;6.892;2022-12-20T19:40:34;10.10;99.90
52669;DHT22;59898;52.786;6.892;2022-12-20T19:43:55;10.10;99.90
52669;DHT22;59898;52.786;6.892;2022-12-20T19:47:16;10.10;99.90
52669;DHT22;59898;52.786;6.892;2022-12-20T19:50:37;10.10;99.90
52669;DHT22;59898;52.786;6.892;2022-12-20T19:53:57;10.10;99.90
52669;DHT22;59898;52.786;6.892;2022-12-20T19:57:19;10.00;99.90
52669;DHT22;59898;52.786;6.892;2022-12-20T20:00:39;10.10;99.90
52669;DHT22;59898;52.786;6.892;2022-12-20T20:04:00;10.10;99.90
52669;DHT22;59898;52.786;6.892;2022-12-20T20:07:22;10.00;99.90
52669;DHT22;59898;52.786;6.892;2022-12-20T20:10:42;10.00;99.90
52669;DHT22;59898;52.786;6.892;2022-12-20T20:14:04;10.00;99.90
52669;DHT22;59898;52.786;6.892;2022-12-20T20:17:27;10.00;99.90
52669;DHT22;59898;52.786;6.892;2022-12-20T20:20:48;10.10;99.90
52669;DHT22;59898;52.786;6.892;2022-12-20T20:24:09;10.00;99.90
52669;DHT22;59898;52.786;6.892;2022-12-20T20:27:30;10.00;99.90
52669;DHT22;59898;52.786;6.892;2022-12-20T20:30:51;10.00;99.90
52669;DHT22;59898;52.786;6.892;2022-12-20T20:34:13;10.00;99.90
52669;DHT22;59898;52.786;6.892;2022-12-20T20:37:34;10.00;99.90
52669;DHT22;59898;52.786;6.892;2022-12-20T20:40:55;10.00;99.90
52669;DHT22;59898;52.786;6.892;2022-12-20T20:44:16;10.00;99.90
52669;DHT22;59898;52.786;6.892;2022-12-20T20:47:37;10.00;99.90
52669;DHT22;59898;52.786;6.892;2022-12-20T20:50:58;10.00;99.90
52669;DHT22;59898;52.786;6.892;2022-12-20T20:54:18;10.00;99.90
52669;DHT22;59898;52.786;6.892;2022-12-20T20:57:40;10.00;99.90
52669;DHT22;59898;52.786;6.892;2022-12-20T21:01:02;10.00;99.90
52669;DHT22;59898;52.786;6.892;2022-12-20T21:04:23;10.00;99.90
52669;DHT22;59898;52.786;6.892;2022-12-20T21:07:44;9.90;99.90
52669;DHT22;59898;52.786;6.892;2022-12-20T21:11:05;9.90;99.90
52669;DHT22;59898;52.786;6.892;2022-12-20T21:14:26;9.90;99.90
52669;DHT22;59898;52.786;6.892;2022-12-20T21:17:47;9.90;99.90
52669;DHT22;59898;52.786;6.892;2022-12-20T21:21:09;9.90;99.90
52669;DHT22;59898;52.786;6.892;2022-12-20T21:24:30;9.90;99.90
52669;DHT22;59898;52.786;6.892;2022-12-20T21:27:51;9.90;99.90
52669;DHT22;59898;52.786;6.892;2022-12-20T21:31:14;9.90;99.90
52669;DHT22;59898;52.786;6.892;2022-12-20T21:34:35;9.90;99.90
52669;DHT22;59898;52.786;6.892;2022-12-20T21:37:56;9.90;99.90
52669;DHT22;59898;52.786;6.892;2022-12-20T21:41:18;9.90;99.90
52669;DHT22;59898;52.786;6.892;2022-12-20T21:44:39;9.80;99.90
52669;DHT22;59898;52.786;6.892;2022-12-20T21:48:00;9.80;99.90
52669;DHT22;59898;52.786;6.892;2022-12-20T21:51:22;9.80;99.90
52669;DHT22;59898;52.786;6.892;2022-12-20T21:54:43;9.80;99.90
52669;DHT22;59898;52.786;6.892;2022-12-20T21:58:04;9.80;99.90
52669;DHT22;59898;52.786;6.892;2022-12-20T22:01:26;9.80;99.90
52669;DHT22;59898;52.786;6.892;2022-12-20T22:04:47;9.80;99.90
52669;DHT22;59898;52.786;6.892;2022-12-20T22:08:07;9.70;99.90
52669;DHT22;59898;52.786;6.892;2022-12-20T22:11:28;9.70;99.90
52669;DHT22;59898;52.786;6.892;2022-12-20T22:14:49;9.70;99.90
52669;DHT22;59898;52.786;6.892;2022-12-20T22:18:10;9.70;99.90
52669;DHT22;59898;52.786;6.892;2022-12-20T22:21:32;9.70;99.90
52669;DHT22;59898;52.786;6.892;2022-12-20T22:24:53;9.80;99.90
52669;DHT22;59898;52.786;6.892;2022-12-20T22:28:14;9.70;99.90
52669;DHT22;59898;52.786;6.892;2022-12-20T22:31:35;9.70;99.90
52669;DHT22;59898;52.786;6.892;2022-12-20T22:34:56;9.70;99.90
52669;DHT22;59898;52.786;6.892;2022-12-20T22:38:17;9.70;99.90
52669;DHT22;59898;52.786;6.892;2022-12-20T22:41:37;9.70;99.90
52669;DHT22;59898;52.786;6.892;2022-12-20T22:44:58;9.70;99.90
52669;DHT22;59898;52.786;6.892;2022-12-20T22:48:19;9.70;99.90
52669;DHT22;59898;52.786;6.892;2022-12-20T22:51:40;9.70;99.90
52669;DHT22;59898;52.786;6.892;2022-12-20T22:55:00;9.60;99.90
52669;DHT22;59898;52.786;6.892;2022-12-20T22:58:22;9.70;99.90
52669;DHT22;59898;52.786;6.892;2022-12-20T23:01:43;9.70;99.90
52669;DHT22;59898;52.786;6.892;2022-12-20T23:05:03;9.60;99.90
52669;DHT22;59898;52.786;6.892;2022-12-20T23:08:26;9.70;99.90
52669;DHT22;59898;52.786;6.892;2022-12-20T23:11:47;9.70;99.90
52669;DHT22;59898;52.786;6.892;2022-12-20T23:15:26;9.60;99.90
52669;DHT22;59898;52.786;6.892;2022-12-20T23:19:02;9.60;99.90
52669;DHT22;59898;52.786;6.892;2022-12-20T23:22:25;9.60;99.90